sensor_id;sensor_type;location;lat;lon;timestamp;P1;durP1;ratioP1;P2;durP2;ratioP2
49488;SDS011;35382;51.484;11.476;2023-06-14T00:01:04;4.28;;;2.53;;
49488;SDS011;35382;51.484;11.476;2023-06-14T00:02:47;6.75;;;2.70;;
49488;SDS011;35382;51.484;11.476;2023-06-14T00:04:28;3.20;;;2.10;;
49488;SDS011;35382;51.484;11.476;2023-06-14T00:06:09;3.70;;;2.35;;
49488;SDS011;35382;51.484;11.476;2023-06-14T00:07:50;4.13;;;2.40;;
49488;SDS011;35382;51.484;11.476;2023-06-14T00:09:34;5.00;;;2.20;;
49488;SDS011;35382;51.484;11.476;2023-06-14T00:11:15;3.75;;;2.30;;
49488;SDS011;35382;51.484;11.476;2023-06-14T00:12:56;4.43;;;2.15;;
49488;SDS011;35382;51.484;11.476;2023-06-14T00:14:37;4.63;;;2.17;;
49488;SDS011;35382;51.484;11.476;2023-06-14T00:16:18;4.15;;;1.95;;
49488;SDS011;35382;51.484;11.476;2023-06-14T00:18:00;4.32;;;2.15;;
49488;SDS011;35382;51.484;11.476;2023-06-14T00:19:41;3.97;;;2.20;;
49488;SDS011;35382;51.484;11.476;2023-06-14T00:21:22;4.32;;;2.40;;
49488;SDS011;35382;51.484;11.476;2023-06-14T00:23:03;4.10;;;2.08;;
49488;SDS011;35382;51.484;11.476;2023-06-14T00:24:44;4.93;;;1.95;;
49488;SDS011;35382;51.484;11.476;2023-06-14T00:26:25;5.45;;;2.25;;
49488;SDS011;35382;51.484;11.476;2023-06-14T00:28:06;4.97;;;2.00;;
49488;SDS011;35382;51.484;11.476;2023-06-14T00:29:49;5.28;;;2.20;;
49488;SDS011;35382;51.484;11.476;2023-06-14T00:31:30;4.30;;;2.42;;
49488;SDS011;35382;51.484;11.476;2023-06-14T00:33:11;4.93;;;2.45;;
49488;SDS011;35382;51.484;11.476;2023-06-14T00:34:52;3.90;;;2.10;;
49488;SDS011;35382;51.484;11.476;2023-06-14T00:36:33;4.07;;;2.10;;
49488;SDS011;35382;51.484;11.476;2023-06-14T00:38:14;5.32;;;2.10;;
49488;SDS011;35382;51.484;11.476;2023-06-14T00:39:55;3.90;;;2.53;;
49488;SDS011;35382;51.484;11.476;2023-06-14T00:41:36;4.55;;;2.42;;
49488;SDS011;35382;51.484;11.476;2023-06-14T00:43:17;3.95;;;2.25;;
49488;SDS011;35382;51.484;11.476;2023-06-14T00:44:59;5.13;;;2.70;;
49488;SDS011;35382;51.484;11.476;2023-06-14T00:46:40;5.45;;;2.45;;
49488;SDS011;35382;51.484;11.476;2023-06-14T00:48:21;4.85;;;2.40;;
49488;SDS011;35382;51.484;11.476;2023-06-14T00:50:03;3.85;;;2.33;;
49488;SDS011;35382;51.484;11.476;2023-06-14T00:51:47;4.82;;;2.80;;
49488;SDS011;35382;51.484;11.476;2023-06-14T00:53:28;5.15;;;2.70;;
49488;SDS011;35382;51.484;11.476;2023-06-14T00:55:10;4.82;;;2.17;;
49488;SDS011;35382;51.484;11.476;2023-06-14T00:56:51;4.72;;;2.58;;
49488;SDS011;35382;51.484;11.476;2023-06-14T00:58:33;5.80;;;2.60;;
49488;SDS011;35382;51.484;11.476;2023-06-14T01:00:14;3.97;;;2.25;;
49488;SDS011;35382;51.484;11.476;2023-06-14T01:01:55;4.32;;;2.63;;
49488;SDS011;35382;51.484;11.476;2023-06-14T01:03:36;5.85;;;3.08;;
49488;SDS011;35382;51.484;11.476;2023-06-14T01:05:18;6.55;;;2.60;;
49488;SDS011;35382;51.484;11.476;2023-06-14T01:07:02;4.60;;;2.58;;
49488;SDS011;35382;51.484;11.476;2023-06-14T01:08:51;3.58;;;2.28;;
49488;SDS011;35382;51.484;11.476;2023-06-14T01:14:39;4.30;;;2.60;;
49488;SDS011;35382;51.484;11.476;2023-06-14T01:16:22;4.32;;;2.78;;
49488;SDS011;35382;51.484;11.476;2023-06-14T01:18:03;5.40;;;2.70;;
49488;SDS011;35382;51.484;11.476;2023-06-14T01:19:45;4.90;;;2.53;;
49488;SDS011;35382;51.484;11.476;2023-06-14T01:21:28;3.72;;;2.42;;
49488;SDS011;35382;51.484;11.476;2023-06-14T01:23:13;3.90;;;2.40;;
49488;SDS011;35382;51.484;11.476;2023-06-14T01:24:53;5.95;;;2.47;;
49488;SDS011;35382;51.484;11.476;2023-06-14T01:26:35;3.83;;;2.35;;
49488;SDS011;35382;51.484;11.476;2023-06-14T01:28:19;5.78;;;2.50;;
49488;SDS011;35382;51.484;11.476;2023-06-14T01:30:01;4.70;;;2.45;;
49488;SDS011;35382;51.484;11.476;2023-06-14T01:31:43;4.03;;;2.30;;
49488;SDS011;35382;51.484;11.476;2023-06-14T01:33:26;4.18;;;2.53;;
49488;SDS011;35382;51.484;11.476;2023-06-14T01:35:08;4.45;;;2.58;;
49488;SDS011;35382;51.484;11.476;2023-06-14T01:36:49;5.97;;;2.60;;
49488;SDS011;35382;51.484;11.476;2023-06-14T01:38:31;5.40;;;2.55;;
49488;SDS011;35382;51.484;11.476;2023-06-14T01:40:12;6.07;;;2.65;;
49488;SDS011;35382;51.484;11.476;2023-06-14T01:41:55;5.63;;;2.40;;
49488;SDS011;35382;51.484;11.476;2023-06-14T01:43:38;5.38;;;2.47;;
49488;SDS011;35382;51.484;11.476;2023-06-14T01:45:20;3.78;;;2.40;;
49488;SDS011;35382;51.484;11.476;2023-06-14T01:47:02;5.22;;;2.40;;
49488;SDS011;35382;51.484;11.476;2023-06-14T01:48:47;5.15;;;2.67;;
49488;SDS011;35382;51.484;11.476;2023-06-14T01:50:31;4.47;;;2.47;;
49488;SDS011;35382;51.484;11.476;2023-06-14T01:52:12;5.20;;;2.58;;
49488;SDS011;35382;51.484;11.476;2023-06-14T01:53:53;4.32;;;2.45;;
49488;SDS011;35382;51.484;11.476;2023-06-14T01:55:35;4.65;;;2.70;;
49488;SDS011;35382;51.484;11.476;2023-06-14T01:57:21;6.25;;;2.13;;
49488;SDS011;35382;51.484;11.476;2023-06-14T01:59:03;5.05;;;2.50;;
49488;SDS011;35382;51.484;11.476;2023-06-14T02:00:44;4.05;;;2.40;;
49488;SDS011;35382;51.484;11.476;2023-06-14T02:02:25;4.05;;;2.58;;
49488;SDS011;35382;51.484;11.476;2023-06-14T02:04:07;5.03;;;2.70;;
49488;SDS011;35382;51.484;11.476;2023-06-14T02:05:48;8.23;;;2.80;;
49488;SDS011;35382;51.484;11.476;2023-06-14T02:07:29;4.07;;;2.42;;
49488;SDS011;35382;51.484;11.476;2023-06-14T02:09:10;4.80;;;2.70;;
49488;SDS011;35382;51.484;11.476;2023-06-14T02:10:51;6.22;;;2.28;;
49488;SDS011;35382;51.484;11.476;2023-06-14T02:12:32;6.75;;;2.55;;
49488;SDS011;35382;51.484;11.476;2023-06-14T02:14:13;4.55;;;2.17;;
49488;SDS011;35382;51.484;11.476;2023-06-14T02:15:55;5.53;;;2.33;;
49488;SDS011;35382;51.484;11.476;2023-06-14T02:17:36;4.57;;;2.70;;
49488;SDS011;35382;51.484;11.476;2023-06-14T02:19:20;3.90;;;2.40;;
49488;SDS011;35382;51.484;11.476;2023-06-14T02:21:02;5.82;;;2.53;;
49488;SDS011;35382;51.484;11.476;2023-06-14T02:22:42;5.38;;;2.67;;
49488;SDS011;35382;51.484;11.476;2023-06-14T02:24:24;7.18;;;2.88;;
49488;SDS011;35382;51.484;11.476;2023-06-14T02:26:05;4.45;;;2.60;;
49488;SDS011;35382;51.484;11.476;2023-06-14T02:27:48;6.65;;;2.60;;
49488;SDS011;35382;51.484;11.476;2023-06-14T02:29:29;4.78;;;2.50;;
49488;SDS011;35382;51.484;11.476;2023-06-14T02:31:10;4.13;;;2.78;;
49488;SDS011;35382;51.484;11.476;2023-06-14T02:32:51;4.88;;;2.75;;
49488;SDS011;35382;51.484;11.476;2023-06-14T02:34:34;6.20;;;2.72;;
49488;SDS011;35382;51.484;11.476;2023-06-14T02:36:15;5.05;;;2.80;;
49488;SDS011;35382;51.484;11.476;2023-06-14T02:37:56;4.93;;;2.70;;
49488;SDS011;35382;51.484;11.476;2023-06-14T02:39:37;4.22;;;2.40;;
49488;SDS011;35382;51.484;11.476;2023-06-14T02:41:18;3.78;;;2.20;;
49488;SDS011;35382;51.484;11.476;2023-06-14T02:42:59;4.68;;;2.45;;
49488;SDS011;35382;51.484;11.476;2023-06-14T02:44:40;6.55;;;3.35;;
49488;SDS011;35382;51.484;11.476;2023-06-14T02:46:21;4.25;;;2.67;;
49488;SDS011;35382;51.484;11.476;2023-06-14T02:48:04;5.88;;;2.67;;
49488;SDS011;35382;51.484;11.476;2023-06-14T02:49:45;4.15;;;2.70;;
49488;SDS011;35382;51.484;11.476;2023-06-14T02:51:28;4.32;;;2.50;;
49488;SDS011;35382;51.484;11.476;2023-06-14T02:53:09;5.68;;;2.63;;
49488;SDS011;35382;51.484;11.476;2023-06-14T02:54:51;6.13;;;2.92;;
49488;SDS011;35382;51.484;11.476;2023-06-14T02:56:32;4.93;;;2.80;;
49488;SDS011;35382;51.484;11.476;2023-06-14T02:58:14;5.10;;;2.60;;
49488;SDS011;35382;51.484;11.476;2023-06-14T02:59:55;5.55;;;2.90;;
49488;SDS011;35382;51.484;11.476;2023-06-14T03:01:36;4.95;;;2.60;;
49488;SDS011;35382;51.484;11.476;2023-06-14T03:03:22;4.60;;;2.80;;
49488;SDS011;35382;51.484;11.476;2023-06-14T03:05:07;6.00;;;2.88;;
49488;SDS011;35382;51.484;11.476;2023-06-14T03:06:49;4.78;;;2.80;;
49488;SDS011;35382;51.484;11.476;2023-06-14T03:08:33;5.93;;;2.90;;
49488;SDS011;35382;51.484;11.476;2023-06-14T03:10:22;5.60;;;2.60;;
49488;SDS011;35382;51.484;11.476;2023-06-14T03:12:05;4.97;;;2.60;;
49488;SDS011;35382;51.484;11.476;2023-06-14T03:13:51;5.07;;;2.80;;
49488;SDS011;35382;51.484;11.476;2023-06-14T03:15:32;5.10;;;2.53;;
49488;SDS011;35382;51.484;11.476;2023-06-14T03:17:14;5.70;;;2.63;;
49488;SDS011;35382;51.484;11.476;2023-06-14T03:18:55;5.15;;;2.70;;
49488;SDS011;35382;51.484;11.476;2023-06-14T03:20:39;4.82;;;2.65;;
49488;SDS011;35382;51.484;11.476;2023-06-14T03:22:21;7.53;;;2.65;;
49488;SDS011;35382;51.484;11.476;2023-06-14T03:24:02;5.28;;;2.63;;
49488;SDS011;35382;51.484;11.476;2023-06-14T03:25:44;4.47;;;2.88;;
49488;SDS011;35382;51.484;11.476;2023-06-14T03:27:27;6.30;;;2.60;;
49488;SDS011;35382;51.484;11.476;2023-06-14T03:29:09;5.25;;;2.92;;
49488;SDS011;35382;51.484;11.476;2023-06-14T03:30:51;4.45;;;2.97;;
49488;SDS011;35382;51.484;11.476;2023-06-14T03:32:33;8.38;;;2.40;;
49488;SDS011;35382;51.484;11.476;2023-06-14T03:34:14;4.80;;;2.63;;
49488;SDS011;35382;51.484;11.476;2023-06-14T03:35:56;5.72;;;2.63;;
49488;SDS011;35382;51.484;11.476;2023-06-14T03:37:38;4.20;;;2.47;;
49488;SDS011;35382;51.484;11.476;2023-06-14T03:39:19;4.03;;;2.38;;
49488;SDS011;35382;51.484;11.476;2023-06-14T03:41:00;4.85;;;2.60;;
49488;SDS011;35382;51.484;11.476;2023-06-14T03:42:41;5.15;;;2.72;;
49488;SDS011;35382;51.484;11.476;2023-06-14T03:44:22;4.95;;;2.50;;
49488;SDS011;35382;51.484;11.476;2023-06-14T03:46:03;6.32;;;2.63;;
49488;SDS011;35382;51.484;11.476;2023-06-14T03:47:47;4.85;;;2.70;;
49488;SDS011;35382;51.484;11.476;2023-06-14T03:49:28;4.55;;;2.70;;
49488;SDS011;35382;51.484;11.476;2023-06-14T03:51:09;4.65;;;2.65;;
49488;SDS011;35382;51.484;11.476;2023-06-14T03:52:52;5.75;;;2.90;;
49488;SDS011;35382;51.484;11.476;2023-06-14T03:54:34;6.28;;;2.83;;
49488;SDS011;35382;51.484;11.476;2023-06-14T03:56:15;5.32;;;2.78;;
49488;SDS011;35382;51.484;11.476;2023-06-14T03:57:58;4.55;;;2.53;;
49488;SDS011;35382;51.484;11.476;2023-06-14T03:59:38;4.55;;;2.75;;
49488;SDS011;35382;51.484;11.476;2023-06-14T04:01:19;5.63;;;2.90;;
49488;SDS011;35382;51.484;11.476;2023-06-14T04:03:02;3.95;;;2.42;;
49488;SDS011;35382;51.484;11.476;2023-06-14T04:04:45;4.22;;;2.65;;
49488;SDS011;35382;51.484;11.476;2023-06-14T04:06:26;4.00;;;2.70;;
49488;SDS011;35382;51.484;11.476;2023-06-14T04:08:13;6.43;;;3.28;;
49488;SDS011;35382;51.484;11.476;2023-06-14T04:09:55;5.13;;;2.92;;
49488;SDS011;35382;51.484;11.476;2023-06-14T04:11:36;4.93;;;2.80;;
49488;SDS011;35382;51.484;11.476;2023-06-14T04:13:17;7.20;;;3.00;;
49488;SDS011;35382;51.484;11.476;2023-06-14T04:14:58;6.03;;;3.13;;
49488;SDS011;35382;51.484;11.476;2023-06-14T04:16:39;5.43;;;2.88;;
49488;SDS011;35382;51.484;11.476;2023-06-14T04:18:20;7.20;;;3.47;;
49488;SDS011;35382;51.484;11.476;2023-06-14T04:20:02;5.78;;;3.13;;
49488;SDS011;35382;51.484;11.476;2023-06-14T04:21:46;4.65;;;2.60;;
49488;SDS011;35382;51.484;11.476;2023-06-14T04:23:29;6.35;;;2.80;;
49488;SDS011;35382;51.484;11.476;2023-06-14T04:25:10;6.22;;;3.03;;
49488;SDS011;35382;51.484;11.476;2023-06-14T04:26:53;5.63;;;3.00;;
49488;SDS011;35382;51.484;11.476;2023-06-14T04:28:35;5.63;;;2.92;;
49488;SDS011;35382;51.484;11.476;2023-06-14T04:30:21;4.63;;;2.80;;
49488;SDS011;35382;51.484;11.476;2023-06-14T04:32:09;5.18;;;3.05;;
49488;SDS011;35382;51.484;11.476;2023-06-14T04:33:52;5.45;;;3.38;;
49488;SDS011;35382;51.484;11.476;2023-06-14T04:35:36;5.78;;;2.88;;
49488;SDS011;35382;51.484;11.476;2023-06-14T04:37:18;5.55;;;2.70;;
49488;SDS011;35382;51.484;11.476;2023-06-14T04:38:59;6.18;;;2.92;;
49488;SDS011;35382;51.484;11.476;2023-06-14T04:40:44;5.45;;;3.20;;
49488;SDS011;35382;51.484;11.476;2023-06-14T04:42:29;5.75;;;3.00;;
49488;SDS011;35382;51.484;11.476;2023-06-14T04:44:12;4.60;;;3.30;;
49488;SDS011;35382;51.484;11.476;2023-06-14T04:45:57;6.18;;;3.00;;
49488;SDS011;35382;51.484;11.476;2023-06-14T04:47:38;4.88;;;3.30;;
49488;SDS011;35382;51.484;11.476;2023-06-14T04:49:21;5.55;;;3.13;;
49488;SDS011;35382;51.484;11.476;2023-06-14T04:51:04;4.85;;;2.92;;
49488;SDS011;35382;51.484;11.476;2023-06-14T04:52:45;5.28;;;2.95;;
49488;SDS011;35382;51.484;11.476;2023-06-14T04:54:26;4.75;;;3.10;;
49488;SDS011;35382;51.484;11.476;2023-06-14T04:56:07;5.40;;;2.85;;
49488;SDS011;35382;51.484;11.476;2023-06-14T04:57:48;5.68;;;3.45;;
49488;SDS011;35382;51.484;11.476;2023-06-14T04:59:29;6.75;;;3.72;;
49488;SDS011;35382;51.484;11.476;2023-06-14T05:01:14;4.88;;;3.20;;
49488;SDS011;35382;51.484;11.476;2023-06-14T05:02:55;5.10;;;3.33;;
49488;SDS011;35382;51.484;11.476;2023-06-14T05:04:38;6.07;;;3.45;;
49488;SDS011;35382;51.484;11.476;2023-06-14T05:06:20;6.57;;;3.67;;
49488;SDS011;35382;51.484;11.476;2023-06-14T05:08:01;7.32;;;3.97;;
49488;SDS011;35382;51.484;11.476;2023-06-14T05:09:46;23.05;;;15.00;;
49488;SDS011;35382;51.484;11.476;2023-06-14T05:11:27;5.35;;;3.92;;
49488;SDS011;35382;51.484;11.476;2023-06-14T05:13:08;5.72;;;3.90;;
49488;SDS011;35382;51.484;11.476;2023-06-14T05:14:53;6.38;;;3.60;;
49488;SDS011;35382;51.484;11.476;2023-06-14T05:16:36;6.75;;;3.90;;
49488;SDS011;35382;51.484;11.476;2023-06-14T05:18:17;6.82;;;4.43;;
49488;SDS011;35382;51.484;11.476;2023-06-14T05:19:58;6.40;;;3.42;;
49488;SDS011;35382;51.484;11.476;2023-06-14T05:21:39;5.50;;;3.80;;
49488;SDS011;35382;51.484;11.476;2023-06-14T05:23:20;7.47;;;3.80;;
49488;SDS011;35382;51.484;11.476;2023-06-14T05:25:01;7.20;;;3.88;;
49488;SDS011;35382;51.484;11.476;2023-06-14T05:26:43;7.10;;;4.18;;
49488;SDS011;35382;51.484;11.476;2023-06-14T05:28:24;5.65;;;4.07;;
49488;SDS011;35382;51.484;11.476;2023-06-14T05:30:05;7.45;;;4.40;;
49488;SDS011;35382;51.484;11.476;2023-06-14T05:31:50;5.70;;;4.13;;
49488;SDS011;35382;51.484;11.476;2023-06-14T05:33:31;5.55;;;3.60;;
49488;SDS011;35382;51.484;11.476;2023-06-14T05:35:16;5.95;;;4.05;;
49488;SDS011;35382;51.484;11.476;2023-06-14T05:36:57;7.75;;;4.20;;
49488;SDS011;35382;51.484;11.476;2023-06-14T05:38:38;6.72;;;4.10;;
49488;SDS011;35382;51.484;11.476;2023-06-14T05:40:19;6.45;;;4.05;;
49488;SDS011;35382;51.484;11.476;2023-06-14T05:42:00;6.32;;;4.40;;
49488;SDS011;35382;51.484;11.476;2023-06-14T05:43:43;5.90;;;3.60;;
49488;SDS011;35382;51.484;11.476;2023-06-14T05:45:24;8.45;;;4.35;;
49488;SDS011;35382;51.484;11.476;2023-06-14T05:47:05;8.02;;;4.28;;
49488;SDS011;35382;51.484;11.476;2023-06-14T05:48:46;8.25;;;4.53;;
49488;SDS011;35382;51.484;11.476;2023-06-14T05:50:27;5.40;;;4.05;;
49488;SDS011;35382;51.484;11.476;2023-06-14T05:52:09;5.43;;;4.05;;
49488;SDS011;35382;51.484;11.476;2023-06-14T05:53:54;7.22;;;4.35;;
49488;SDS011;35382;51.484;11.476;2023-06-14T05:55:35;6.43;;;4.25;;
49488;SDS011;35382;51.484;11.476;2023-06-14T05:57:16;5.72;;;4.00;;
49488;SDS011;35382;51.484;11.476;2023-06-14T05:58:57;6.80;;;4.50;;
49488;SDS011;35382;51.484;11.476;2023-06-14T06:00:39;7.75;;;4.53;;
49488;SDS011;35382;51.484;11.476;2023-06-14T06:02:20;7.25;;;4.70;;
49488;SDS011;35382;51.484;11.476;2023-06-14T06:04:01;7.80;;;4.80;;
49488;SDS011;35382;51.484;11.476;2023-06-14T06:05:42;5.78;;;4.13;;
49488;SDS011;35382;51.484;11.476;2023-06-14T06:07:23;8.50;;;5.00;;
49488;SDS011;35382;51.484;11.476;2023-06-14T06:09:04;5.95;;;4.55;;
49488;SDS011;35382;51.484;11.476;2023-06-14T06:10:45;6.45;;;4.10;;
49488;SDS011;35382;51.484;11.476;2023-06-14T06:12:26;7.18;;;4.68;;
49488;SDS011;35382;51.484;11.476;2023-06-14T06:14:09;6.80;;;4.30;;
49488;SDS011;35382;51.484;11.476;2023-06-14T06:15:52;5.97;;;4.30;;
49488;SDS011;35382;51.484;11.476;2023-06-14T06:17:33;6.30;;;4.53;;
49488;SDS011;35382;51.484;11.476;2023-06-14T06:19:16;6.25;;;4.43;;
49488;SDS011;35382;51.484;11.476;2023-06-14T06:20:57;9.38;;;4.97;;
49488;SDS011;35382;51.484;11.476;2023-06-14T06:22:38;7.15;;;4.57;;
49488;SDS011;35382;51.484;11.476;2023-06-14T06:24:19;7.65;;;4.30;;
49488;SDS011;35382;51.484;11.476;2023-06-14T06:26:02;5.60;;;4.10;;
49488;SDS011;35382;51.484;11.476;2023-06-14T06:27:43;6.07;;;4.28;;
49488;SDS011;35382;51.484;11.476;2023-06-14T06:29:26;6.93;;;4.85;;
49488;SDS011;35382;51.484;11.476;2023-06-14T06:31:07;5.82;;;4.45;;
49488;SDS011;35382;51.484;11.476;2023-06-14T06:32:48;7.70;;;5.03;;
49488;SDS011;35382;51.484;11.476;2023-06-14T06:34:29;7.05;;;4.93;;
49488;SDS011;35382;51.484;11.476;2023-06-14T06:36:10;7.82;;;4.70;;
49488;SDS011;35382;51.484;11.476;2023-06-14T06:37:53;8.15;;;5.32;;
49488;SDS011;35382;51.484;11.476;2023-06-14T06:39:34;6.50;;;4.32;;
49488;SDS011;35382;51.484;11.476;2023-06-14T06:41:15;6.15;;;4.55;;
49488;SDS011;35382;51.484;11.476;2023-06-14T06:42:56;7.43;;;4.75;;
49488;SDS011;35382;51.484;11.476;2023-06-14T06:44:41;8.30;;;4.90;;
49488;SDS011;35382;51.484;11.476;2023-06-14T06:46:22;7.53;;;4.93;;
49488;SDS011;35382;51.484;11.476;2023-06-14T06:48:03;6.97;;;4.72;;
49488;SDS011;35382;51.484;11.476;2023-06-14T06:49:50;7.28;;;4.70;;
49488;SDS011;35382;51.484;11.476;2023-06-14T06:51:34;7.40;;;4.68;;
49488;SDS011;35382;51.484;11.476;2023-06-14T06:53:22;5.75;;;4.47;;
49488;SDS011;35382;51.484;11.476;2023-06-14T06:55:03;9.50;;;5.35;;
49488;SDS011;35382;51.484;11.476;2023-06-14T06:56:47;6.60;;;4.72;;
49488;SDS011;35382;51.484;11.476;2023-06-14T06:58:27;7.97;;;5.00;;
49488;SDS011;35382;51.484;11.476;2023-06-14T07:00:10;7.85;;;4.72;;
49488;SDS011;35382;51.484;11.476;2023-06-14T07:01:55;8.70;;;5.80;;
49488;SDS011;35382;51.484;11.476;2023-06-14T07:03:36;7.13;;;5.10;;
49488;SDS011;35382;51.484;11.476;2023-06-14T07:05:17;7.07;;;4.70;;
49488;SDS011;35382;51.484;11.476;2023-06-14T07:06:57;8.55;;;4.95;;
49488;SDS011;35382;51.484;11.476;2023-06-14T07:08:38;8.30;;;5.30;;
49488;SDS011;35382;51.484;11.476;2023-06-14T07:10:19;9.70;;;4.57;;
49488;SDS011;35382;51.484;11.476;2023-06-14T07:12:04;6.68;;;4.88;;
49488;SDS011;35382;51.484;11.476;2023-06-14T07:13:47;7.03;;;4.88;;
49488;SDS011;35382;51.484;11.476;2023-06-14T07:15:28;9.27;;;5.10;;
49488;SDS011;35382;51.484;11.476;2023-06-14T07:17:09;7.75;;;4.93;;
49488;SDS011;35382;51.484;11.476;2023-06-14T07:18:51;8.73;;;5.25;;
49488;SDS011;35382;51.484;11.476;2023-06-14T07:20:32;7.55;;;5.18;;
49488;SDS011;35382;51.484;11.476;2023-06-14T07:22:16;7.05;;;5.10;;
49488;SDS011;35382;51.484;11.476;2023-06-14T07:23:57;10.05;;;5.10;;
49488;SDS011;35382;51.484;11.476;2023-06-14T07:25:38;8.55;;;5.38;;
49488;SDS011;35382;51.484;11.476;2023-06-14T07:27:20;7.38;;;5.20;;
49488;SDS011;35382;51.484;11.476;2023-06-14T07:29:01;7.35;;;5.00;;
49488;SDS011;35382;51.484;11.476;2023-06-14T07:30:42;7.00;;;4.97;;
49488;SDS011;35382;51.484;11.476;2023-06-14T07:32:24;6.68;;;5.13;;
49488;SDS011;35382;51.484;11.476;2023-06-14T07:34:05;8.45;;;5.57;;
49488;SDS011;35382;51.484;11.476;2023-06-14T07:35:47;10.02;;;4.93;;
49488;SDS011;35382;51.484;11.476;2023-06-14T07:37:29;6.50;;;4.70;;
49488;SDS011;35382;51.484;11.476;2023-06-14T07:39:12;7.05;;;5.10;;
49488;SDS011;35382;51.484;11.476;2023-06-14T07:40:53;7.63;;;5.38;;
49488;SDS011;35382;51.484;11.476;2023-06-14T07:42:34;8.63;;;4.90;;
49488;SDS011;35382;51.484;11.476;2023-06-14T07:44:17;7.90;;;4.60;;
49488;SDS011;35382;51.484;11.476;2023-06-14T07:45:58;8.85;;;5.30;;
49488;SDS011;35382;51.484;11.476;2023-06-14T07:47:38;8.13;;;4.93;;
49488;SDS011;35382;51.484;11.476;2023-06-14T07:49:19;6.80;;;4.90;;
49488;SDS011;35382;51.484;11.476;2023-06-14T07:51:00;6.70;;;5.05;;
49488;SDS011;35382;51.484;11.476;2023-06-14T07:52:47;5.67;;;4.50;;
49488;SDS011;35382;51.484;11.476;2023-06-14T07:54:31;6.95;;;4.85;;
49488;SDS011;35382;51.484;11.476;2023-06-14T07:56:13;8.00;;;4.93;;
49488;SDS011;35382;51.484;11.476;2023-06-14T07:57:56;6.10;;;4.43;;
49488;SDS011;35382;51.484;11.476;2023-06-14T07:59:40;6.68;;;4.70;;
49488;SDS011;35382;51.484;11.476;2023-06-14T08:01:21;6.40;;;5.00;;
49488;SDS011;35382;51.484;11.476;2023-06-14T08:03:04;7.60;;;5.10;;
49488;SDS011;35382;51.484;11.476;2023-06-14T08:04:48;6.45;;;4.35;;
49488;SDS011;35382;51.484;11.476;2023-06-14T08:06:29;7.28;;;4.90;;
49488;SDS011;35382;51.484;11.476;2023-06-14T08:08:11;7.63;;;5.65;;
49488;SDS011;35382;51.484;11.476;2023-06-14T08:09:52;6.88;;;4.93;;
49488;SDS011;35382;51.484;11.476;2023-06-14T08:11:34;6.55;;;4.53;;
49488;SDS011;35382;51.484;11.476;2023-06-14T08:13:15;6.47;;;5.18;;
49488;SDS011;35382;51.484;11.476;2023-06-14T08:14:56;7.72;;;5.15;;
49488;SDS011;35382;51.484;11.476;2023-06-14T08:16:39;6.28;;;4.28;;
49488;SDS011;35382;51.484;11.476;2023-06-14T08:18:20;7.78;;;4.80;;
49488;SDS011;35382;51.484;11.476;2023-06-14T08:20:03;7.68;;;4.75;;
49488;SDS011;35382;51.484;11.476;2023-06-14T08:21:46;7.63;;;5.00;;
49488;SDS011;35382;51.484;11.476;2023-06-14T08:23:28;10.13;;;4.55;;
49488;SDS011;35382;51.484;11.476;2023-06-14T08:25:09;6.28;;;4.15;;
49488;SDS011;35382;51.484;11.476;2023-06-14T08:26:50;8.02;;;4.20;;
49488;SDS011;35382;51.484;11.476;2023-06-14T08:28:31;5.97;;;3.67;;
49488;SDS011;35382;51.484;11.476;2023-06-14T08:30:12;5.97;;;3.88;;
49488;SDS011;35382;51.484;11.476;2023-06-14T08:31:53;5.93;;;4.47;;
49488;SDS011;35382;51.484;11.476;2023-06-14T08:33:34;6.18;;;4.28;;
49488;SDS011;35382;51.484;11.476;2023-06-14T08:35:15;5.78;;;3.80;;
49488;SDS011;35382;51.484;11.476;2023-06-14T08:36:56;7.03;;;4.28;;
49488;SDS011;35382;51.484;11.476;2023-06-14T08:38:37;5.57;;;4.18;;
49488;SDS011;35382;51.484;11.476;2023-06-14T08:40:19;6.35;;;3.90;;
49488;SDS011;35382;51.484;11.476;2023-06-14T08:42:02;5.88;;;4.13;;
49488;SDS011;35382;51.484;11.476;2023-06-14T08:43:44;6.32;;;4.00;;
49488;SDS011;35382;51.484;11.476;2023-06-14T08:45:25;6.43;;;4.07;;
49488;SDS011;35382;51.484;11.476;2023-06-14T08:47:07;8.20;;;3.50;;
49488;SDS011;35382;51.484;11.476;2023-06-14T08:48:49;5.82;;;4.15;;
49488;SDS011;35382;51.484;11.476;2023-06-14T08:50:30;6.22;;;4.00;;
49488;SDS011;35382;51.484;11.476;2023-06-14T08:52:13;7.85;;;3.60;;
49488;SDS011;35382;51.484;11.476;2023-06-14T08:53:55;6.82;;;3.92;;
49488;SDS011;35382;51.484;11.476;2023-06-14T08:55:37;5.05;;;3.42;;
49488;SDS011;35382;51.484;11.476;2023-06-14T08:57:20;4.43;;;3.30;;
49488;SDS011;35382;51.484;11.476;2023-06-14T08:59:02;7.97;;;3.83;;
49488;SDS011;35382;51.484;11.476;2023-06-14T09:00:47;5.70;;;3.83;;
49488;SDS011;35382;51.484;11.476;2023-06-14T09:02:28;6.32;;;3.38;;
49488;SDS011;35382;51.484;11.476;2023-06-14T09:04:09;6.38;;;3.55;;
49488;SDS011;35382;51.484;11.476;2023-06-14T09:05:50;5.47;;;3.45;;
49488;SDS011;35382;51.484;11.476;2023-06-14T09:07:32;7.13;;;3.90;;
49488;SDS011;35382;51.484;11.476;2023-06-14T09:09:13;5.20;;;3.75;;
49488;SDS011;35382;51.484;11.476;2023-06-14T09:10:54;5.03;;;3.45;;
49488;SDS011;35382;51.484;11.476;2023-06-14T09:12:35;7.95;;;3.47;;
49488;SDS011;35382;51.484;11.476;2023-06-14T09:14:19;4.75;;;3.20;;
49488;SDS011;35382;51.484;11.476;2023-06-14T09:16:00;6.32;;;3.63;;
49488;SDS011;35382;51.484;11.476;2023-06-14T09:17:42;5.93;;;3.22;;
49488;SDS011;35382;51.484;11.476;2023-06-14T09:19:23;5.28;;;3.53;;
49488;SDS011;35382;51.484;11.476;2023-06-14T09:21:07;6.10;;;3.67;;
49488;SDS011;35382;51.484;11.476;2023-06-14T09:22:48;7.00;;;3.75;;
49488;SDS011;35382;51.484;11.476;2023-06-14T09:24:29;5.28;;;3.65;;
49488;SDS011;35382;51.484;11.476;2023-06-14T09:26:17;6.18;;;3.80;;
49488;SDS011;35382;51.484;11.476;2023-06-14T09:28:00;6.20;;;3.85;;
49488;SDS011;35382;51.484;11.476;2023-06-14T09:29:41;5.57;;;3.65;;
49488;SDS011;35382;51.484;11.476;2023-06-14T09:31:22;4.45;;;3.22;;
49488;SDS011;35382;51.484;11.476;2023-06-14T09:33:03;6.78;;;3.53;;
49488;SDS011;35382;51.484;11.476;2023-06-14T09:34:46;4.85;;;3.38;;
49488;SDS011;35382;51.484;11.476;2023-06-14T09:36:34;5.45;;;3.50;;
49488;SDS011;35382;51.484;11.476;2023-06-14T09:38:15;5.90;;;3.50;;
49488;SDS011;35382;51.484;11.476;2023-06-14T09:39:56;6.70;;;3.33;;
49488;SDS011;35382;51.484;11.476;2023-06-14T09:41:39;5.22;;;3.33;;
49488;SDS011;35382;51.484;11.476;2023-06-14T09:43:20;6.10;;;3.00;;
49488;SDS011;35382;51.484;11.476;2023-06-14T09:45:02;7.50;;;3.40;;
49488;SDS011;35382;51.484;11.476;2023-06-14T09:46:44;5.55;;;3.40;;
49488;SDS011;35382;51.484;11.476;2023-06-14T09:48:25;5.53;;;3.08;;
49488;SDS011;35382;51.484;11.476;2023-06-14T09:50:06;4.32;;;3.13;;
49488;SDS011;35382;51.484;11.476;2023-06-14T09:51:49;5.57;;;3.00;;
49488;SDS011;35382;51.484;11.476;2023-06-14T09:53:33;4.57;;;2.53;;
49488;SDS011;35382;51.484;11.476;2023-06-14T09:55:16;8.68;;;3.15;;
49488;SDS011;35382;51.484;11.476;2023-06-14T09:56:59;4.93;;;2.67;;
49488;SDS011;35382;51.484;11.476;2023-06-14T09:58:42;6.15;;;2.90;;
49488;SDS011;35382;51.484;11.476;2023-06-14T10:00:23;6.13;;;2.90;;
49488;SDS011;35382;51.484;11.476;2023-06-14T10:02:07;5.82;;;2.63;;
49488;SDS011;35382;51.484;11.476;2023-06-14T10:04:06;4.28;;;2.60;;
49488;SDS011;35382;51.484;11.476;2023-06-14T10:05:47;4.40;;;2.88;;
49488;SDS011;35382;51.484;11.476;2023-06-14T10:07:32;5.45;;;3.10;;
49488;SDS011;35382;51.484;11.476;2023-06-14T10:09:20;4.40;;;3.20;;